Time;durP1;ratioP1;P1;durP2;ratioP2;P2;SDS_P1;SDS_P2;PMS_P1;PMS_P2;Temp;Humidity;BMP_temperature;BMP_pressure;BME280_temperature;BME280_humidity;BME280_pressure;Samples;Min_cycle;Max_cycle;Signal;HPM_P1;HPM_P2
2020/12/16 00:01:34;;;;;;;35.95;20.20;;;5.80;99.90;;;;;;4990649;28;20042;-63
2020/12/16 00:04:01;;;;;;;40.08;21.42;;;5.80;99.90;;;;;;4965855;28;20053;-63
2020/12/16 00:06:28;;;;;;;37.80;21.48;;;5.80;99.90;;;;;;4985611;28;20054;-63
2020/12/16 00:08:54;;;;;;;38.33;20.92;;;5.80;99.90;;;;;;4991315;28;20054;-64
2020/12/16 00:11:21;;;;;;;39.20;21.20;;;5.80;99.90;;;;;;4991302;28;20051;-63
2020/12/16 00:13:47;;;;;;;41.85;21.35;;;5.80;99.90;;;;;;4990410;28;20039;-62
2020/12/16 00:16:14;;;;;;;38.85;21.95;;;5.80;99.90;;;;;;4989588;28;20058;-65
2020/12/16 00:18:40;;;;;;;35.60;19.77;;;5.80;99.90;;;;;;4973158;28;20054;-64
2020/12/16 00:21:07;;;;;;;34.90;20.35;;;5.80;99.90;;;;;;4991281;28;20046;-63
2020/12/16 00:23:33;;;;;;;44.20;22.55;;;5.90;99.90;;;;;;4990559;28;20153;-63
2020/12/16 00:26:00;;;;;;;38.97;20.77;;;5.80;99.90;;;;;;4990325;28;20181;-64
2020/12/16 00:28:26;;;;;;;35.97;19.33;;;5.90;99.90;;;;;;4974093;28;20061;-63
2020/12/16 00:30:53;;;;;;;36.00;19.80;;;5.90;99.90;;;;;;4990873;28;20085;-63
2020/12/16 00:33:19;;;;;;;37.30;19.20;;;5.90;99.90;;;;;;4991134;28;20050;-64
2020/12/16 00:35:46;;;;;;;34.28;18.88;;;5.90;99.90;;;;;;4991660;28;20053;-64
2020/12/16 00:38:13;;;;;;;34.08;20.02;;;5.90;99.90;;;;;;4990814;28;20476;-63
2020/12/16 00:40:40;;;;;;;37.35;20.63;;;5.90;99.90;;;;;;4989232;28;20081;-63
2020/12/16 00:43:07;;;;;;;36.83;20.35;;;5.90;99.90;;;;;;4987158;28;20121;-63
2020/12/16 00:45:33;;;;;;;37.42;20.25;;;5.90;99.90;;;;;;4990381;28;20057;-63
2020/12/16 00:48:00;;;;;;;35.97;20.02;;;5.90;99.90;;;;;;4989843;28;20089;-63
2020/12/16 00:50:26;;;;;;;33.60;19.10;;;6.00;99.90;;;;;;4989848;28;20061;-64
2020/12/16 00:52:52;;;;;;;37.33;19.92;;;6.00;99.90;;;;;;4990144;28;20077;-62
2020/12/16 00:55:20;;;;;;;36.92;19.95;;;6.00;99.90;;;;;;4989352;28;20042;-62
2020/12/16 00:57:46;;;;;;;37.20;19.92;;;6.00;99.90;;;;;;4991134;28;20129;-65
2020/12/16 01:00:14;;;;;;;36.65;20.20;;;6.00;99.90;;;;;;4989621;28;20051;-64
2020/12/16 01:02:45;;;;;;;36.35;20.45;;;6.00;99.90;;;;;;4972620;28;20057;-64
2020/12/16 01:05:13;;;;;;;36.67;21.27;;;6.00;99.90;;;;;;4990136;28;20046;-65
2020/12/16 01:07:41;;;;;;;36.78;20.27;;;6.00;99.90;;;;;;4993841;28;20050;-63
2020/12/16 01:10:09;;;;;;;37.20;20.20;;;6.00;99.90;;;;;;4994495;28;20054;-63
2020/12/16 01:12:40;;;;;;;39.58;20.63;;;6.00;99.90;;;;;;4993416;28;20109;-64
2020/12/16 01:15:10;;;;;;;35.78;21.55;;;6.00;99.90;;;;;;4988018;28;20045;-63
2020/12/16 01:17:40;;;;;;;40.30;21.88;;;6.00;99.90;;;;;;4993260;28;20046;-62
2020/12/16 01:20:07;;;;;;;34.97;20.00;;;6.00;99.90;;;;;;4993732;28;20065;-64
2020/12/16 01:22:45;;;;;;;35.50;20.20;;;6.00;99.90;;;;;;4993316;28;20050;-63
2020/12/16 01:25:12;;;;;;;36.55;20.65;;;6.10;99.90;;;;;;4994263;28;20058;-63
2020/12/16 01:27:39;;;;;;;36.17;19.00;;;6.10;99.90;;;;;;4992108;28;20057;-64
2020/12/16 01:30:09;;;;;;;35.00;19.80;;;6.10;99.90;;;;;;4993866;28;20050;-64
2020/12/16 01:32:37;;;;;;;34.40;19.52;;;6.10;99.90;;;;;;4992906;28;20050;-64
2020/12/16 01:35:10;;;;;;;35.58;20.33;;;6.10;99.90;;;;;;4993133;28;20084;-63
2020/12/16 01:37:37;;;;;;;33.60;19.88;;;6.10;99.90;;;;;;4993457;28;20046;-63
2020/12/16 01:40:06;;;;;;;37.42;20.42;;;6.10;99.90;;;;;;4990001;28;20493;-63
2020/12/16 01:42:33;;;;;;;36.78;20.70;;;6.10;99.90;;;;;;4990088;28;20058;-63
2020/12/16 01:45:04;;;;;;;38.20;20.58;;;6.10;99.90;;;;;;4992786;28;20061;-64
2020/12/16 01:47:31;;;;;;;38.00;20.67;;;6.10;99.90;;;;;;4983826;28;20149;-63
2020/12/16 01:49:57;;;;;;;33.67;19.52;;;6.10;99.90;;;;;;4991648;28;20125;-63
2020/12/16 01:52:27;;;;;;;35.08;19.38;;;6.10;99.90;;;;;;4991943;28;20066;-64
2020/12/16 01:54:54;;;;;;;35.65;19.92;;;6.10;99.90;;;;;;4978075;28;20052;-63
2020/12/16 01:57:24;;;;;;;36.20;20.00;;;6.10;99.90;;;;;;4993168;28;20046;-63
2020/12/16 01:59:51;;;;;;;35.25;19.90;;;6.10;99.90;;;;;;4986992;28;20190;-63
2020/12/16 02:02:24;;;;;;;34.25;19.52;;;6.10;99.90;;;;;;4991145;28;20480;-62
2020/12/16 02:04:51;;;;;;;32.75;18.55;;;6.10;99.90;;;;;;4992476;28;20062;-62
2020/12/16 02:07:20;;;;;;;37.17;20.45;;;6.10;99.90;;;;;;4986923;28;20050;-64
2020/12/16 02:09:48;;;;;;;34.45;19.85;;;6.10;99.90;;;;;;4993914;28;20054;-63
2020/12/16 02:12:33;;;;;;;42.92;22.38;;;6.10;99.90;;;;;;4989540;28;20478;-63
2020/12/16 02:15:00;;;;;;;34.67;21.10;;;6.20;99.90;;;;;;4984802;28;20062;-63
2020/12/16 02:17:27;;;;;;;37.42;20.55;;;6.20;99.90;;;;;;4993367;28;20053;-65
2020/12/16 02:19:58;;;;;;;43.92;23.42;;;6.10;99.90;;;;;;4992561;28;20057;-63
2020/12/16 02:22:25;;;;;;;48.40;26.30;;;6.10;99.90;;;;;;4992563;28;20506;-63
2020/12/16 02:25:07;;;;;;;35.60;20.42;;;6.20;99.90;;;;;;4993081;28;20504;-62
2020/12/16 02:27:35;;;;;;;36.20;19.90;;;6.10;99.90;;;;;;4991086;28;20141;-63
2020/12/16 02:30:04;;;;;;;33.97;19.48;;;6.10;99.90;;;;;;4992921;28;20061;-64
2020/12/16 02:32:36;;;;;;;37.40;20.00;;;6.10;99.90;;;;;;4993119;28;20524;-63
2020/12/16 02:35:03;;;;;;;39.60;20.95;;;6.10;99.90;;;;;;4993571;28;20076;-63
2020/12/16 02:37:29;;;;;;;36.45;20.88;;;6.10;99.90;;;;;;4992693;28;20054;-63
2020/12/16 02:39:55;;;;;;;35.75;20.00;;;6.10;99.90;;;;;;4992785;28;20061;-64
2020/12/16 02:42:24;;;;;;;33.78;19.33;;;6.10;99.90;;;;;;4991491;28;20089;-63
2020/12/16 02:44:52;;;;;;;34.67;20.15;;;6.10;99.90;;;;;;4991594;28;20089;-63
2020/12/16 02:47:19;;;;;;;37.78;20.10;;;6.10;99.90;;;;;;4987468;28;20409;-63
2020/12/16 02:49:46;;;;;;;37.45;19.70;;;6.10;99.90;;;;;;4993577;28;20400;-63
2020/12/16 02:52:13;;;;;;;34.20;20.90;;;6.10;99.90;;;;;;4993038;28;20061;-63
2020/12/16 02:54:40;;;;;;;36.78;19.92;;;6.10;99.90;;;;;;4993479;28;20046;-64
2020/12/16 02:57:07;;;;;;;32.05;19.50;;;6.10;99.90;;;;;;4990729;28;20489;-63
2020/12/16 02:59:33;;;;;;;36.15;20.20;;;6.10;99.90;;;;;;4991900;28;20154;-64
2020/12/16 03:02:00;;;;;;;35.08;18.70;;;6.10;99.90;;;;;;4992105;28;20416;-63
2020/12/16 03:04:27;;;;;;;33.33;18.50;;;6.00;99.90;;;;;;4993691;28;20054;-63
2020/12/16 03:06:56;;;;;;;34.30;20.00;;;6.00;99.90;;;;;;4991395;28;20054;-63
2020/12/16 03:09:25;;;;;;;32.60;19.17;;;6.10;99.90;;;;;;4975212;28;20519;-63
2020/12/16 03:11:56;;;;;;;35.60;19.80;;;6.00;99.90;;;;;;4992622;28;20409;-63
2020/12/16 03:14:22;;;;;;;35.35;20.13;;;6.00;99.90;;;;;;4992348;28;20047;-63
2020/12/16 03:16:49;;;;;;;33.55;18.95;;;6.10;99.90;;;;;;4991847;28;20054;-64
2020/12/16 03:19:16;;;;;;;33.83;19.75;;;6.00;99.90;;;;;;4992122;28;20056;-63
2020/12/16 03:21:43;;;;;;;34.88;19.38;;;6.00;99.90;;;;;;4992618;28;20460;-63
2020/12/16 03:24:25;;;;;;;33.03;19.48;;;6.10;99.90;;;;;;4988073;28;20133;-63
2020/12/16 03:26:51;;;;;;;35.13;19.92;;;6.10;99.90;;;;;;4991751;28;20439;-64
2020/12/16 03:29:19;;;;;;;33.17;19.60;;;6.10;99.90;;;;;;4989621;28;20082;-65
2020/12/16 03:31:46;;;;;;;36.45;19.45;;;6.10;99.90;;;;;;4990921;28;20677;-63
2020/12/16 03:34:12;;;;;;;32.65;19.20;;;6.00;99.90;;;;;;4991625;28;20051;-62
2020/12/16 03:36:39;;;;;;;34.08;18.48;;;6.00;99.90;;;;;;4991077;28;20049;-62
2020/12/16 03:39:05;;;;;;;36.97;20.65;;;6.00;99.90;;;;;;4975037;28;20457;-62
2020/12/16 03:41:33;;;;;;;38.80;21.17;;;6.00;99.90;;;;;;4992493;28;20050;-63
2020/12/16 03:44:00;;;;;;;35.20;19.27;;;6.00;99.90;;;;;;4991054;28;20064;-63
2020/12/16 03:46:27;;;;;;;32.95;19.85;;;6.00;99.90;;;;;;4990378;28;20046;-63
2020/12/16 03:48:53;;;;;;;33.70;19.30;;;5.90;99.90;;;;;;4991832;28;20054;-64
2020/12/16 03:51:20;;;;;;;31.77;19.13;;;5.90;99.90;;;;;;4973661;28;20069;-63
2020/12/16 03:53:46;;;;;;;32.60;19.58;;;5.90;99.90;;;;;;4992074;28;20374;-63
2020/12/16 03:56:14;;;;;;;37.80;21.60;;;5.90;99.90;;;;;;5000984;28;20046;-63
2020/12/16 03:58:46;;;;;;;39.17;20.77;;;5.90;99.90;;;;;;4993294;28;20417;-62
2020/12/16 04:01:14;;;;;;;36.17;19.48;;;5.90;99.90;;;;;;4990801;28;20058;-63
2020/12/16 04:03:41;;;;;;;37.40;21.00;;;5.90;99.90;;;;;;4974886;28;20061;-63
2020/12/16 04:06:12;;;;;;;33.70;19.48;;;5.90;99.90;;;;;;4991995;28;20049;-63
2020/12/16 04:08:42;;;;;;;34.63;18.88;;;5.90;99.90;;;;;;4990619;28;20060;-64
2020/12/16 04:11:11;;;;;;;31.20;19.23;;;5.90;99.90;;;;;;4990816;28;20160;-63
2020/12/16 04:13:38;;;;;;;33.80;19.63;;;5.80;99.90;;;;;;4987840;28;20053;-62
2020/12/16 04:16:08;;;;;;;31.45;19.00;;;5.80;99.90;;;;;;4981013;28;20047;-63
2020/12/16 04:18:35;;;;;;;35.05;19.92;;;5.80;99.90;;;;;;4992063;28;20530;-64
2020/12/16 04:21:04;;;;;;;33.53;19.90;;;5.70;99.90;;;;;;4972066;28;20051;-64
2020/12/16 04:23:31;;;;;;;35.67;19.40;;;5.60;99.90;;;;;;4987087;28;20057;-63
2020/12/16 04:25:58;;;;;;;37.25;20.63;;;5.60;99.90;;;;;;4990695;28;20054;-63
2020/12/16 04:28:24;;;;;;;35.30;19.42;;;5.50;99.90;;;;;;4974072;28;20050;-64
2020/12/16 04:30:51;;;;;;;33.25;19.38;;;5.40;99.90;;;;;;4990453;28;20428;-64
2020/12/16 04:33:17;;;;;;;32.50;18.40;;;5.40;99.90;;;;;;4986714;28;20051;-64
2020/12/16 04:35:44;;;;;;;36.13;19.63;;;5.30;99.90;;;;;;4982653;28;20050;-64
2020/12/16 04:38:10;;;;;;;32.50;18.65;;;5.20;99.90;;;;;;4990829;28;20054;-64
2020/12/16 04:40:37;;;;;;;34.22;19.48;;;5.20;99.90;;;;;;4990824;28;20043;-64
2020/12/16 04:43:06;;;;;;;33.17;18.85;;;5.10;99.90;;;;;;4990067;28;20054;-63
2020/12/16 04:45:38;;;;;;;35.42;19.08;;;5.10;99.90;;;;;;4989459;28;20109;-64
2020/12/16 04:48:09;;;;;;;35.83;19.25;;;5.10;99.90;;;;;;4990593;28;20054;-63
2020/12/16 04:50:37;;;;;;;36.47;19.88;;;5.00;99.90;;;;;;4990137;28;20049;-64
2020/12/16 04:53:08;;;;;;;35.67;20.23;;;5.00;99.90;;;;;;4990810;28;20050;-64
2020/12/16 04:55:39;;;;;;;39.75;20.90;;;5.00;99.90;;;;;;4990276;28;20073;-65
2020/12/16 04:58:07;;;;;;;40.58;21.20;;;5.00;99.90;;;;;;4990296;28;20405;-64
2020/12/16 05:00:34;;;;;;;36.63;19.52;;;5.00;99.90;;;;;;4991320;28;20511;-63
2020/12/16 05:03:07;;;;;;;38.17;20.10;;;4.90;99.90;;;;;;4991133;28;20381;-64
2020/12/16 05:05:34;;;;;;;43.35;21.35;;;4.90;99.90;;;;;;4991469;28;20058;-64
2020/12/16 05:08:14;;;;;;;37.15;19.42;;;4.80;99.90;;;;;;4990365;28;20054;-63
2020/12/16 05:10:44;;;;;;;36.47;20.05;;;4.80;99.90;;;;;;4986152;28;20057;-64
2020/12/16 05:13:19;;;;;;;41.17;20.90;;;4.80;99.90;;;;;;4985001;28;20047;-64
2020/12/16 05:15:48;;;;;;;35.40;19.85;;;4.80;99.90;;;;;;4988812;28;20066;-65
2020/12/16 05:18:20;;;;;;;36.38;20.52;;;4.80;99.90;;;;;;4989307;28;20050;-64
2020/12/16 05:20:55;;;;;;;41.72;22.35;;;4.80;99.90;;;;;;4991007;28;20413;-64
2020/12/16 05:23:29;;;;;;;38.30;20.63;;;4.90;99.90;;;;;;4981989;28;20057;-65
2020/12/16 05:25:59;;;;;;;40.03;21.77;;;4.90;99.90;;;;;;4990812;28;20090;-65
2020/12/16 05:28:27;;;;;;;42.75;22.02;;;4.90;99.90;;;;;;4990501;28;20054;-65
2020/12/16 05:30:55;;;;;;;44.33;21.98;;;4.90;99.90;;;;;;4990895;28;20105;-64
2020/12/16 05:33:21;;;;;;;37.70;20.23;;;4.90;99.90;;;;;;4990868;28;20051;-64
2020/12/16 05:35:53;;;;;;;37.95;20.23;;;5.00;99.90;;;;;;4991278;28;20449;-65
2020/12/16 05:38:22;;;;;;;38.22;20.67;;;5.00;99.90;;;;;;4991204;28;20132;-64
2020/12/16 05:40:49;;;;;;;37.05;20.58;;;5.00;99.90;;;;;;4990156;28;20042;-65
2020/12/16 05:43:24;;;;;;;39.13;20.80;;;5.00;99.90;;;;;;4990686;28;20042;-64
2020/12/16 05:45:56;;;;;;;38.53;20.38;;;5.10;99.90;;;;;;4981210;28;20113;-65
2020/12/16 05:48:28;;;;;;;34.55;19.90;;;5.10;99.90;;;;;;4990906;28;20050;-64
2020/12/16 05:50:58;;;;;;;36.92;19.90;;;5.20;99.90;;;;;;4990753;28;20046;-64
2020/12/16 05:53:27;;;;;;;36.50;19.50;;;5.20;99.90;;;;;;4986693;28;20504;-65
2020/12/16 05:56:00;;;;;;;39.03;20.13;;;5.20;99.90;;;;;;4989965;28;20148;-64
2020/12/16 05:58:33;;;;;;;37.40;19.33;;;5.20;99.90;;;;;;4993938;28;20460;-64
2020/12/16 06:01:05;;;;;;;37.55;19.90;;;5.20;99.90;;;;;;4976294;28;20050;-63
2020/12/16 06:03:39;;;;;;;38.30;20.33;;;5.20;99.90;;;;;;4993741;28;20058;-65
2020/12/16 06:06:10;;;;;;;37.38;20.17;;;5.20;99.90;;;;;;4964779;28;20050;-65
2020/12/16 06:08:42;;;;;;;34.28;20.08;;;5.30;99.90;;;;;;4989877;28;20057;-65
2020/12/16 06:11:11;;;;;;;36.40;20.52;;;5.30;99.90;;;;;;4986314;28;20054;-64
2020/12/16 06:13:44;;;;;;;34.58;19.27;;;5.30;99.90;;;;;;4992935;28;20096;-64
2020/12/16 06:16:10;;;;;;;35.88;19.80;;;5.30;99.90;;;;;;4983858;28;20380;-65
2020/12/16 06:18:39;;;;;;;36.05;18.52;;;5.30;99.90;;;;;;4982824;28;20046;-66
2020/12/16 06:21:08;;;;;;;37.03;18.88;;;5.40;99.90;;;;;;4973857;28;20042;-65
2020/12/16 06:23:39;;;;;;;32.13;18.17;;;5.40;99.90;;;;;;4993937;28;20121;-64
2020/12/16 06:26:16;;;;;;;30.95;16.92;;;5.40;99.90;;;;;;4988430;28;20181;-65
2020/12/16 06:28:44;;;;;;;31.13;17.73;;;5.40;99.90;;;;;;4993466;28;20050;-65
2020/12/16 06:31:23;;;;;;;30.52;17.48;;;5.40;99.90;;;;;;4993395;28;20069;-65
2020/12/16 06:34:02;;;;;;;32.80;18.85;;;5.40;99.90;;;;;;4993647;28;20042;-64
2020/12/16 06:36:33;;;;;;;32.28;18.00;;;5.50;99.90;;;;;;4996106;28;20488;-68
2020/12/16 06:38:59;;;;;;;30.88;17.20;;;5.50;99.90;;;;;;4992765;28;20046;-65
2020/12/16 06:41:32;;;;;;;37.45;19.55;;;5.50;99.90;;;;;;4993436;28;20492;-65
2020/12/16 06:44:10;;;;;;;33.15;18.02;;;5.50;99.90;;;;;;4992194;28;20507;-65
2020/12/16 06:46:42;;;;;;;31.33;17.55;;;5.60;99.90;;;;;;4992341;28;20477;-65
2020/12/16 06:49:24;;;;;;;29.75;17.50;;;5.60;99.90;;;;;;4975727;28;20051;-66
2020/12/16 06:51:51;;;;;;;32.42;17.65;;;5.60;99.90;;;;;;4994022;28;20046;-65
2020/12/16 06:54:20;;;;;;;29.50;16.85;;;5.60;99.90;;;;;;4993281;28;20104;-65
2020/12/16 06:57:09;;;;;;;30.80;17.55;;;5.60;99.90;;;;;;4995546;28;20059;-65
2020/12/16 06:59:46;;;;;;;26.75;15.68;;;5.60;99.90;;;;;;4976382;28;20042;-65
2020/12/16 07:02:21;;;;;;;29.58;17.15;;;5.60;99.90;;;;;;4991550;28;20568;-65
2020/12/16 07:04:48;;;;;;;37.25;19.42;;;5.60;99.90;;;;;;4992520;28;20077;-65
2020/12/16 07:07:58;;;;;;;33.15;18.45;;;5.50;99.90;;;;;;4992377;28;20050;-66
2020/12/16 07:10:33;;;;;;;36.67;19.25;;;5.50;99.90;;;;;;4988416;28;20056;-66
2020/12/16 07:13:13;;;;;;;35.28;18.50;;;5.50;99.90;;;;;;4992249;28;20164;-64
2020/12/16 07:15:46;;;;;;;32.28;18.92;;;5.60;99.90;;;;;;4992339;28;20042;-65
2020/12/16 07:18:23;;;;;;;35.35;19.48;;;5.50;99.90;;;;;;4991943;28;20052;-65
2020/12/16 07:20:50;;;;;;;35.42;19.63;;;5.50;99.90;;;;;;4991933;28;20138;-65
2020/12/16 07:23:16;;;;;;;40.55;21.75;;;5.50;99.90;;;;;;4992072;28;20053;-65
2020/12/16 07:25:46;;;;;;;37.38;20.65;;;5.50;99.90;;;;;;4991534;28;20054;-66
2020/12/16 07:28:13;;;;;;;35.95;21.92;;;5.50;99.90;;;;;;4992096;28;20077;-65
2020/12/16 07:30:50;;;;;;;38.15;20.52;;;5.50;99.90;;;;;;4991766;28;20057;-66
2020/12/16 07:33:17;;;;;;;36.55;20.35;;;5.60;99.90;;;;;;4991323;28;20507;-65
2020/12/16 07:35:47;;;;;;;37.13;19.15;;;5.60;99.90;;;;;;4991814;28;20057;-66
2020/12/16 07:38:15;;;;;;;39.20;20.00;;;5.60;99.90;;;;;;4990549;28;20050;-66
2020/12/16 07:40:50;;;;;;;38.03;19.02;;;5.60;99.90;;;;;;4974443;28;20046;-65
2020/12/16 07:43:21;;;;;;;35.53;19.45;;;5.60;99.90;;;;;;4991551;28;20050;-65
2020/12/16 07:46:00;;;;;;;35.95;20.08;;;5.60;99.90;;;;;;4990107;28;20428;-66
2020/12/16 07:48:27;;;;;;;34.92;18.35;;;5.60;99.90;;;;;;4991846;28;20050;-65
2020/12/16 07:51:13;;;;;;;39.90;19.65;;;5.60;99.90;;;;;;4991089;28;20058;-65
2020/12/16 07:53:50;;;;;;;47.33;22.02;;;5.70;99.90;;;;;;4990954;28;20050;-65
2020/12/16 07:56:21;;;;;;;40.08;19.38;;;5.70;99.90;;;;;;4991165;28;20042;-66
2020/12/16 07:58:47;;;;;;;38.30;19.75;;;5.70;99.90;;;;;;4991388;28;20080;-66
2020/12/16 08:01:16;;;;;;;41.42;21.10;;;5.70;99.90;;;;;;4990305;28;20054;-65
2020/12/16 08:03:43;;;;;;;34.55;18.88;;;5.80;99.90;;;;;;4974396;28;20054;-65
2020/12/16 08:06:10;;;;;;;38.58;21.15;;;5.80;99.90;;;;;;4989019;28;20062;-65
2020/12/16 08:08:51;;;;;;;38.80;18.95;;;5.80;99.90;;;;;;4990904;28;20056;-66
2020/12/16 08:11:22;;;;;;;36.95;19.95;;;5.80;99.90;;;;;;4989257;28;20267;-66
2020/12/16 08:13:49;;;;;;;45.78;21.00;;;5.90;99.90;;;;;;4990011;28;20382;-65
2020/12/16 08:16:16;;;;;;;38.85;19.77;;;5.90;99.90;;;;;;4989245;28;20046;-66
2020/12/16 08:18:47;;;;;;;42.15;20.42;;;5.90;99.90;;;;;;4990107;28;20093;-65
2020/12/16 08:21:18;;;;;;;37.42;19.15;;;5.90;99.90;;;;;;4988576;28;20420;-65
2020/12/16 08:23:45;;;;;;;34.90;18.10;;;5.90;99.90;;;;;;4991014;28;20054;-65
2020/12/16 08:26:12;;;;;;;37.53;18.00;;;5.90;99.90;;;;;;4989712;28;20049;-65
2020/12/16 08:28:38;;;;;;;36.40;17.55;;;5.90;99.90;;;;;;4990642;28;20073;-66
2020/12/16 08:31:05;;;;;;;33.92;18.13;;;5.90;99.90;;;;;;4989179;28;20081;-66
2020/12/16 08:33:33;;;;;;;32.70;18.08;;;6.00;99.90;;;;;;4990035;28;20051;-65
2020/12/16 08:36:04;;;;;;;31.33;17.58;;;6.00;99.90;;;;;;4988575;28;20055;-66
2020/12/16 08:38:36;;;;;;;41.90;19.60;;;6.00;99.90;;;;;;4990309;28;20069;-66
2020/12/16 08:41:06;;;;;;;41.92;19.13;;;6.00;99.90;;;;;;4977441;28;20042;-65
2020/12/16 08:43:37;;;;;;;36.63;19.90;;;6.00;99.90;;;;;;4990159;28;20059;-65
2020/12/16 08:46:08;;;;;;;32.45;18.10;;;5.90;99.90;;;;;;4985338;28;20058;-65
2020/12/16 08:48:57;;;;;;;35.55;18.23;;;5.90;99.90;;;;;;4990512;28;20416;-65
2020/12/16 08:51:33;;;;;;;33.90;17.52;;;6.00;99.90;;;;;;4988344;28;20050;-66
2020/12/16 08:54:01;;;;;;;38.25;18.85;;;6.00;99.90;;;;;;4989355;28;20046;-66
2020/12/16 08:56:43;;;;;;;31.85;18.25;;;6.00;99.90;;;;;;4988210;28;20046;-66
2020/12/16 08:59:16;;;;;;;34.92;18.35;;;6.00;99.90;;;;;;4990852;28;20058;-66
2020/12/16 09:01:45;;;;;;;36.33;20.13;;;6.10;99.90;;;;;;4987640;28;20055;-66
2020/12/16 09:04:23;;;;;;;37.38;19.70;;;6.10;99.90;;;;;;4973177;28;20069;-66
2020/12/16 09:07:05;;;;;;;35.38;20.38;;;6.20;99.90;;;;;;4985212;28;20057;-65
2020/12/16 09:09:44;;;;;;;39.50;20.42;;;6.20;99.90;;;;;;4990357;28;20046;-65
2020/12/16 09:12:13;;;;;;;39.35;20.85;;;6.20;99.90;;;;;;4989285;28;20046;-66
2020/12/16 09:14:50;;;;;;;32.20;18.80;;;6.20;99.90;;;;;;4991129;28;20053;-65
2020/12/16 09:17:17;;;;;;;32.40;19.25;;;6.30;99.90;;;;;;4988690;28;20042;-65
2020/12/16 09:19:43;;;;;;;35.95;20.45;;;6.30;99.90;;;;;;4987922;28;20259;-65
2020/12/16 09:22:10;;;;;;;34.47;19.92;;;6.40;99.90;;;;;;4990275;28;20038;-65
2020/12/16 09:24:37;;;;;;;36.55;20.55;;;6.40;99.90;;;;;;4989046;28;20046;-65
2020/12/16 09:27:10;;;;;;;38.92;21.88;;;6.50;99.90;;;;;;4991250;28;20054;-66
2020/12/16 09:29:47;;;;;;;36.83;21.33;;;6.60;99.90;;;;;;4982887;28;20133;-66
2020/12/16 09:32:19;;;;;;;38.83;22.20;;;6.60;99.90;;;;;;4977059;28;20092;-66
2020/12/16 09:34:47;;;;;;;37.70;20.63;;;6.70;99.90;;;;;;4992844;28;20046;-65
2020/12/16 09:37:28;;;;;;;37.60;21.60;;;6.70;99.90;;;;;;4993645;28;20054;-65
2020/12/16 09:40:11;;;;;;;37.70;21.75;;;6.80;99.90;;;;;;4993281;28;20137;-66
2020/12/16 09:42:38;;;;;;;43.47;22.77;;;6.80;99.90;;;;;;4985920;28;20133;-66
2020/12/16 09:45:09;;;;;;;43.13;22.63;;;6.90;99.90;;;;;;4993436;28;20046;-67
2020/12/16 09:47:45;;;;;;;41.53;23.05;;;7.00;99.90;;;;;;4994056;28;20046;-65
2020/12/16 09:50:12;;;;;;;40.90;22.17;;;7.00;99.90;;;;;;4994456;28;20050;-66
2020/12/16 09:52:39;;;;;;;42.38;23.10;;;7.10;99.90;;;;;;4993982;28;20492;-66
2020/12/16 09:55:19;;;;;;;40.03;23.40;;;7.10;99.90;;;;;;4992512;28;20050;-66
2020/12/16 09:58:01;;;;;;;42.08;23.35;;;7.10;99.90;;;;;;4992980;28;20087;-65
2020/12/16 10:00:29;;;;;;;38.17;23.30;;;7.10;99.90;;;;;;4992657;28;20057;-65
2020/12/16 10:02:57;;;;;;;40.28;23.15;;;7.10;99.90;;;;;;4974072;28;20504;-66
2020/12/16 10:05:23;;;;;;;43.20;21.75;;;7.10;99.90;;;;;;4992114;28;20068;-66
2020/12/16 10:07:50;;;;;;;38.00;21.20;;;7.10;99.90;;;;;;4975807;28;20507;-65
2020/12/16 10:10:17;;;;;;;38.35;21.73;;;7.20;99.90;;;;;;4992915;28;20066;-66
2020/12/16 10:12:44;;;;;;;42.80;23.55;;;7.30;99.90;;;;;;4992913;28;20046;-66
2020/12/16 10:15:10;;;;;;;40.03;22.00;;;7.30;99.90;;;;;;4993013;28;20141;-66
2020/12/16 10:17:37;;;;;;;40.85;22.67;;;7.30;99.90;;;;;;4992419;28;20049;-66
2020/12/16 10:20:05;;;;;;;37.53;21.38;;;7.40;99.90;;;;;;4993898;28;20133;-66
2020/12/16 10:22:32;;;;;;;36.58;21.88;;;7.40;99.90;;;;;;4991654;28;20531;-67
2020/12/16 10:25:00;;;;;;;32.25;19.58;;;7.40;99.90;;;;;;4993023;28;20054;-65
2020/12/16 10:27:29;;;;;;;36.30;20.85;;;7.50;99.90;;;;;;4990959;28;20050;-65
2020/12/16 10:30:00;;;;;;;37.63;20.98;;;7.50;99.90;;;;;;4991534;28;20066;-67
2020/12/16 10:32:27;;;;;;;37.78;22.65;;;7.50;99.90;;;;;;4990485;28;20086;-66
2020/12/16 10:34:54;;;;;;;43.25;21.55;;;7.50;99.90;;;;;;4974890;28;20057;-65
2020/12/16 10:37:22;;;;;;;42.08;22.67;;;7.50;99.90;;;;;;4990684;28;20057;-65
2020/12/16 10:39:48;;;;;;;35.58;20.77;;;7.60;99.90;;;;;;4978002;28;20380;-65
2020/12/16 10:42:15;;;;;;;33.65;19.33;;;7.60;99.90;;;;;;4991294;28;20054;-65
2020/12/16 10:44:42;;;;;;;39.38;20.60;;;7.60;99.90;;;;;;4991898;28;20046;-65
2020/12/16 10:47:09;;;;;;;36.42;20.63;;;7.60;99.90;;;;;;4991059;28;20592;-65
2020/12/16 10:49:36;;;;;;;33.70;20.38;;;7.70;99.90;;;;;;4992501;28;20054;-66
2020/12/16 10:52:06;;;;;;;35.30;19.65;;;7.70;99.90;;;;;;4990140;28;20069;-66
2020/12/16 10:54:34;;;;;;;34.40;21.05;;;7.80;99.90;;;;;;4993395;28;20082;-65
2020/12/16 10:57:01;;;;;;;31.30;19.15;;;7.90;99.90;;;;;;4991279;28;20050;-66
2020/12/16 10:59:29;;;;;;;31.90;19.88;;;8.00;99.90;;;;;;4993217;28;20057;-65
2020/12/16 11:02:09;;;;;;;44.65;23.20;;;8.10;99.90;;;;;;4992473;28;20049;-66
2020/12/16 11:04:36;;;;;;;34.88;20.38;;;8.10;99.90;;;;;;4992204;28;20038;-65
2020/12/16 11:07:05;;;;;;;32.97;19.02;;;8.20;99.90;;;;;;4986699;28;20130;-66
2020/12/16 11:09:32;;;;;;;34.63;20.17;;;8.30;99.90;;;;;;4975785;28;20493;-67
2020/12/16 11:11:59;;;;;;;33.55;20.27;;;8.40;99.90;;;;;;4992186;28;20049;-66
2020/12/16 11:14:26;;;;;;;32.72;19.73;;;8.40;99.90;;;;;;4993469;28;20082;-66
2020/12/16 11:16:54;;;;;;;34.00;19.48;;;8.40;99.90;;;;;;4992728;28;20046;-65
2020/12/16 11:19:21;;;;;;;39.08;24.27;;;8.50;99.90;;;;;;4990941;28;20042;-65
2020/12/16 11:21:50;;;;;;;46.30;26.63;;;8.50;99.90;;;;;;4991929;28;20046;-65
2020/12/16 11:24:21;;;;;;;38.67;22.17;;;8.50;99.90;;;;;;4991986;28;20050;-66
2020/12/16 11:26:50;;;;;;;31.88;18.38;;;8.60;99.90;;;;;;4988745;28;20050;-65
2020/12/16 11:29:21;;;;;;;30.63;19.52;;;8.50;99.90;;;;;;4991507;28;20054;-66
2020/12/16 11:31:50;;;;;;;31.70;19.13;;;8.60;99.90;;;;;;4992055;28;20057;-65
2020/12/16 11:34:19;;;;;;;31.73;18.30;;;8.70;99.90;;;;;;4974566;28;20495;-65
2020/12/16 11:36:48;;;;;;;33.15;18.73;;;8.80;99.90;;;;;;4991236;28;20042;-64
2020/12/16 11:39:15;;;;;;;32.90;19.33;;;8.90;99.90;;;;;;4984373;28;20047;-65
2020/12/16 11:41:45;;;;;;;35.35;20.10;;;8.90;99.90;;;;;;4991761;28;20046;-65
2020/12/16 11:44:16;;;;;;;31.38;19.98;;;8.80;99.90;;;;;;4991967;28;20056;-64
2020/12/16 11:46:43;;;;;;;33.03;19.67;;;8.90;99.90;;;;;;4988767;28;20057;-65
2020/12/16 11:49:22;;;;;;;32.40;20.42;;;8.90;99.90;;;;;;4974780;28;20109;-65
2020/12/16 11:51:49;;;;;;;30.85;19.63;;;8.90;99.90;;;;;;4991586;28;20046;-65
2020/12/16 11:54:17;;;;;;;37.15;23.80;;;9.00;99.90;;;;;;4992068;28;20060;-66
2020/12/16 11:56:44;;;;;;;39.08;24.65;;;9.10;99.90;;;;;;4991310;28;20472;-66
2020/12/16 11:59:27;;;;;;;38.63;22.60;;;9.10;99.90;;;;;;4990058;28;20054;-65
2020/12/16 12:01:57;;;;;;;34.63;20.05;;;9.30;99.90;;;;;;4988769;28;20520;-65
2020/12/16 12:04:25;;;;;;;29.65;19.52;;;9.50;99.90;;;;;;4973166;28;20058;-66
2020/12/16 12:06:52;;;;;;;29.05;19.08;;;9.60;99.90;;;;;;4989469;28;20497;-66
2020/12/16 12:09:21;;;;;;;32.95;20.55;;;9.80;99.90;;;;;;4988467;28;20433;-65
2020/12/16 12:11:49;;;;;;;32.88;19.52;;;9.90;99.90;;;;;;4990335;28;20481;-65
2020/12/16 12:14:19;;;;;;;30.67;19.23;;;10.00;99.90;;;;;;4989274;28;20109;-67
2020/12/16 12:16:52;;;;;;;28.85;18.65;;;10.30;99.90;;;;;;4988133;28;20351;-65
2020/12/16 12:19:19;;;;;;;29.05;19.23;;;10.50;99.90;;;;;;4989696;28;20509;-65
2020/12/16 12:21:46;;;;;;;28.95;19.27;;;10.60;99.90;;;;;;4989628;28;20050;-65
2020/12/16 12:24:15;;;;;;;28.83;19.10;;;10.60;99.90;;;;;;4990158;28;20424;-64
2020/12/16 12:26:41;;;;;;;28.48;19.70;;;10.60;99.90;;;;;;4989696;28;20093;-64
2020/12/16 12:29:08;;;;;;;31.88;19.17;;;10.60;99.90;;;;;;4990777;28;20054;-64
2020/12/16 12:31:35;;;;;;;29.67;19.33;;;10.60;99.90;;;;;;4973016;28;20056;-64
2020/12/16 12:34:02;;;;;;;29.33;19.13;;;10.70;99.90;;;;;;4992136;28;20073;-63
2020/12/16 12:36:29;;;;;;;25.95;18.67;;;10.90;99.90;;;;;;4990191;28;20089;-64
2020/12/16 12:38:55;;;;;;;29.75;19.98;;;11.20;99.90;;;;;;4972960;28;20452;-65
2020/12/16 12:41:22;;;;;;;30.55;19.88;;;11.70;99.90;;;;;;4988780;28;20058;-65
2020/12/16 12:43:49;;;;;;;27.75;18.75;;;12.20;99.90;;;;;;4991707;28;20406;-64
2020/12/16 12:46:15;;;;;;;39.63;26.98;;;12.90;99.90;;;;;;4988807;28;20089;-64
2020/12/16 12:48:42;;;;;;;40.97;28.88;;;14.00;99.90;;;;;;4973175;28;20065;-65